createdAt,value
2022-08-05T00:01:56.701Z,24.27
2022-08-05T00:06:02.039Z,24.29
2022-08-05T00:08:34.967Z,24.23
2022-08-05T00:11:49.352Z,24.24
2022-08-05T00:14:58.035Z,24.19
2022-08-05T00:18:02.545Z,24.14
2022-08-05T00:21:06.499Z,24.11
2022-08-05T00:24:19.004Z,24.07
2022-08-05T00:27:35.624Z,23.98
2022-08-05T00:30:38.788Z,23.96
2022-08-05T00:34:53.628Z,23.90
2022-08-05T00:37:11.667Z,23.87
2022-08-05T00:40:17.893Z,23.81
2022-08-05T00:43:31.539Z,23.80
2022-08-05T00:46:54.279Z,23.76
2022-08-05T00:50:04.977Z,23.54
2022-08-05T00:53:09.751Z,23.59
2022-08-05T00:56:30.163Z,23.57
2022-08-05T00:59:42.088Z,23.48
2022-08-05T01:02:47.184Z,23.42
2022-08-05T01:05:54.508Z,23.41
2022-08-05T01:08:57.307Z,23.34
2022-08-05T01:12:18.720Z,23.33
2022-08-05T01:15:36.064Z,23.36
2022-08-05T01:18:43.469Z,23.32
2022-08-05T01:22:24.110Z,23.28
2022-08-05T01:25:54.865Z,23.27
2022-08-05T01:29:04.250Z,23.21
2022-08-05T01:32:12.370Z,23.11
2022-08-05T01:35:51.940Z,23.11
2022-08-05T01:38:49.889Z,23.04
2022-08-05T01:41:54.556Z,23.05
2022-08-05T01:45:02.302Z,23.04
2022-08-05T01:48:10.469Z,22.97
2022-08-05T01:51:14.713Z,22.93
2022-08-05T01:54:25.482Z,22.79
2022-08-05T01:58:10.211Z,22.81
2022-08-05T02:00:57.849Z,22.74
2022-08-05T02:04:02.818Z,22.76
2022-08-05T02:07:06.153Z,22.73
2022-08-05T02:10:10.224Z,22.67
2022-08-05T02:13:36.484Z,22.61
2022-08-05T02:16:53.409Z,22.44
2022-08-05T02:20:00.544Z,22.50
2022-08-05T02:23:11.549Z,22.54
2022-08-05T02:26:19.042Z,22.50
2022-08-05T02:29:58.730Z,22.47
2022-08-05T02:32:54.227Z,22.50
2022-08-05T02:36:01.343Z,22.42
2022-08-05T02:39:08.623Z,22.44
2022-08-05T02:42:11.893Z,22.43
2022-08-05T02:45:52.848Z,22.39
2022-08-05T02:48:53.707Z,22.42
2022-08-05T02:52:03.011Z,22.39
2022-08-05T02:55:10.870Z,22.37
2022-08-05T02:58:16.547Z,22.38
2022-08-05T03:01:27.040Z,22.18
2022-08-05T03:04:29.895Z,22.20
2022-08-05T03:07:59.298Z,22.20
2022-08-05T03:11:02.311Z,22.18
2022-08-05T03:14:18.558Z,22.19
2022-08-05T03:17:21.572Z,22.19
2022-08-05T03:20:24.833Z,22.09
2022-08-05T03:23:27.982Z,21.98
2022-08-05T03:26:32.703Z,21.87
2022-08-05T03:29:45.423Z,21.83
2022-08-05T03:32:58.289Z,21.78
2022-08-05T03:36:01.516Z,21.66
2022-08-05T03:39:19.858Z,21.65
2022-08-05T03:42:31.998Z,21.61
2022-08-05T03:45:58.264Z,21.58
2022-08-05T03:48:58.506Z,21.53
2022-08-05T03:52:48.602Z,21.47
2022-08-05T03:56:00.760Z,21.48
2022-08-05T03:59:01.760Z,21.45
2022-08-05T04:02:05.385Z,21.43
2022-08-05T04:05:10.219Z,21.32
2022-08-05T04:08:14.560Z,21.35
2022-08-05T04:11:50.583Z,21.31
2022-08-05T04:14:54.708Z,21.33
2022-08-05T04:18:06.626Z,21.30
2022-08-05T04:21:10.905Z,21.36
2022-08-05T04:24:14.252Z,21.41
2022-08-05T04:27:33.092Z,21.46
2022-08-05T04:30:45.147Z,21.52
2022-08-05T04:34:19.341Z,21.55
2022-08-05T04:37:10.433Z,21.56
2022-08-05T04:40:13.010Z,21.60
2022-08-05T04:43:21.878Z,21.61
2022-08-05T04:46:28.345Z,21.64
2022-08-05T04:49:38.400Z,21.68
2022-08-05T04:52:53.196Z,21.74
2022-08-05T04:56:14.311Z,21.79
2022-08-05T04:59:23.877Z,21.79
2022-08-05T05:02:41.534Z,21.83
2022-08-05T05:06:39.617Z,21.85
2022-08-05T05:09:07.630Z,21.89
2022-08-05T05:12:09.795Z,21.95
2022-08-05T05:15:14.012Z,22.02
2022-08-05T05:18:28.370Z,22.06
2022-08-05T05:21:35.662Z,22.10
2022-08-05T05:24:57.067Z,22.19
2022-08-05T05:28:00.171Z,22.24
2022-08-05T05:31:02.316Z,22.32
2022-08-05T05:34:08.211Z,22.35
2022-08-05T05:37:12.565Z,22.36
2022-08-05T05:40:20.520Z,22.42
2022-08-05T05:43:57.193Z,22.49
2022-08-05T05:46:51.070Z,22.52
2022-08-05T05:49:56.788Z,22.56
2022-08-05T05:52:59.455Z,22.62
2022-08-05T05:56:03.118Z,22.70
2022-08-05T05:59:07.876Z,22.74
2022-08-05T06:02:10.216Z,22.81
2022-08-05T06:05:16.392Z,22.86
2022-08-05T06:08:32.732Z,22.92
2022-08-05T06:11:35.703Z,22.97
2022-08-05T06:14:44.390Z,23.08
2022-08-05T06:17:53.586Z,23.16
2022-08-05T06:20:57.370Z,23.22
2022-08-05T06:23:59.736Z,23.30
2022-08-05T06:27:04.260Z,23.39
2022-08-05T06:30:19.957Z,23.47
2022-08-05T06:33:33.159Z,23.56
2022-08-05T06:36:57.014Z,23.61
2022-08-05T06:40:00.844Z,23.68
2022-08-05T06:43:05.702Z,23.77
2022-08-05T06:46:29.878Z,23.83
2022-08-05T06:50:01.597Z,23.93
2022-08-05T06:52:58.717Z,24.00
2022-08-05T06:56:06.281Z,24.12
2022-08-05T06:59:28.305Z,24.23
2022-08-05T07:02:45.396Z,24.29
2022-08-05T07:05:47.508Z,24.38
2022-08-05T07:08:55.067Z,24.46
2022-08-05T07:12:00.465Z,24.59
2022-08-05T07:15:34.761Z,24.70
2022-08-05T07:18:47.685Z,24.84
2022-08-05T07:22:01.143Z,25.00
2022-08-05T07:25:21.850Z,25.15
2022-08-05T07:28:27.350Z,25.38
2022-08-05T07:31:41.032Z,25.81
2022-08-05T07:34:57.962Z,26.15
2022-08-05T07:38:00.951Z,26.57
2022-08-05T07:42:09.440Z,26.91
2022-08-05T07:44:31.321Z,27.31
2022-08-05T07:47:42.318Z,27.73
2022-08-05T07:50:44.844Z,28.12
2022-08-05T07:53:50.414Z,28.45
2022-08-05T07:57:01.237Z,28.81
2022-08-05T08:00:16.267Z,29.13
2022-08-05T08:03:19.120Z,29.45
2022-08-05T08:06:23.788Z,29.65
2022-08-05T08:09:30.775Z,30.06
2022-08-05T08:12:49.314Z,30.27
2022-08-05T08:16:34.808Z,30.69
2022-08-05T08:20:20.938Z,31.12
2022-08-05T08:22:37.411Z,31.50
2022-08-05T08:26:00.953Z,31.89
2022-08-05T08:29:29.248Z,32.12
2022-08-05T08:32:27.914Z,32.47
2022-08-05T08:35:35.136Z,33.05
2022-08-05T08:38:43.245Z,33.42
2022-08-05T08:41:59.754Z,33.80
2022-08-05T08:45:19.057Z,34.02
2022-08-05T08:49:03.296Z,34.39
2022-08-05T08:52:13.665Z,34.73
2022-08-05T08:55:19.299Z,35.27
2022-08-05T08:58:37.458Z,35.58
2022-08-05T09:01:56.978Z,35.80
2022-08-05T09:05:17.787Z,35.99
2022-08-05T09:08:27.419Z,36.28
2022-08-05T09:11:51.672Z,36.14
2022-08-05T09:15:05.856Z,36.26
2022-08-05T09:18:09.523Z,36.57
2022-08-05T09:21:20.480Z,36.45
2022-08-05T09:24:24.297Z,36.64
2022-08-05T09:28:05.540Z,36.41
2022-08-05T09:31:22.592Z,36.57
2022-08-05T09:34:46.324Z,36.51
2022-08-05T09:38:11.991Z,36.76
2022-08-05T09:41:16.078Z,36.90
2022-08-05T09:44:36.584Z,37.03
2022-08-05T09:47:55.699Z,37.04
2022-08-05T09:51:14.953Z,36.95
2022-08-05T09:54:31.116Z,37.25
2022-08-05T09:57:43.306Z,37.10
2022-08-05T10:00:54.610Z,36.96
2022-08-05T10:04:03.225Z,37.13
2022-08-05T10:07:20.002Z,37.13
2022-08-05T10:10:38.548Z,37.21
2022-08-05T10:13:47.435Z,37.03
2022-08-05T10:16:52.563Z,37.06
2022-08-05T10:20:03.109Z,37.30
2022-08-05T10:23:08.918Z,37.13
2022-08-05T10:26:32.292Z,37.12
2022-08-05T10:30:41.006Z,37.38
2022-08-05T10:33:02.518Z,37.22
2022-08-05T10:36:06.530Z,37.01
2022-08-05T10:39:15.207Z,37.09
2022-08-05T10:42:33.958Z,37.01
2022-08-05T10:45:40.280Z,37.00
2022-08-05T10:48:52.605Z,37.17
2022-08-05T10:52:03.265Z,37.31
2022-08-05T10:55:11.000Z,37.15
2022-08-05T10:58:20.509Z,37.12
2022-08-05T11:01:54.823Z,37.16
2022-08-05T11:05:05.813Z,36.98
2022-08-05T11:08:36.546Z,37.06
2022-08-05T11:11:44.915Z,37.00
2022-08-05T11:15:19.393Z,36.95
2022-08-05T11:18:34.250Z,36.98
2022-08-05T11:21:48.838Z,36.90
2022-08-05T11:26:04.942Z,36.60
2022-08-05T11:28:54.391Z,36.47
2022-08-05T11:32:26.354Z,36.45
2022-08-05T11:36:02.766Z,36.21
2022-08-05T11:39:12.110Z,36.06
2022-08-05T11:42:18.380Z,36.00
2022-08-05T11:46:14.745Z,36.17
2022-08-05T11:48:43.465Z,36.12
2022-08-05T11:51:49.401Z,36.05
2022-08-05T11:54:54.996Z,35.98
2022-08-05T11:58:09.328Z,36.04
2022-08-05T12:01:19.061Z,36.06
2022-08-05T12:04:22.303Z,36.13
2022-08-05T12:08:09.360Z,36.16
2022-08-05T12:10:48.883Z,36.15
2022-08-05T12:14:07.553Z,36.19
2022-08-05T12:17:22.662Z,36.18
2022-08-05T12:20:38.441Z,36.11
2022-08-05T12:23:52.212Z,36.01
2022-08-05T12:26:54.478Z,35.88
2022-08-05T12:30:07.426Z,35.49
2022-08-05T12:33:27.427Z,35.52
2022-08-05T12:36:33.171Z,35.66
2022-08-05T12:39:38.582Z,35.71
2022-08-05T12:42:41.345Z,35.86
2022-08-05T12:45:54.191Z,35.99
2022-08-05T12:49:13.681Z,36.08
2022-08-05T12:52:23.842Z,36.15
2022-08-05T12:55:32.784Z,36.15
2022-08-05T12:58:49.211Z,36.09
2022-08-05T13:02:07.534Z,36.04
2022-08-05T13:05:12.706Z,36.10
2022-08-05T13:08:20.096Z,36.07
2022-08-05T13:11:25.538Z,36.06
2022-08-05T13:15:05.087Z,36.14
2022-08-05T13:18:07.968Z,36.05
2022-08-05T13:21:10.351Z,35.97
2022-08-05T13:24:15.202Z,35.91
2022-08-05T13:27:52.114Z,35.94
2022-08-05T13:30:54.900Z,35.94
2022-08-05T13:34:22.647Z,35.80
2022-08-05T13:37:34.482Z,35.72
2022-08-05T13:40:50.048Z,35.70
2022-08-05T13:43:55.234Z,35.68
2022-08-05T13:47:01.688Z,35.67
2022-08-05T13:50:11.226Z,35.74
2022-08-05T13:53:15.847Z,35.68
2022-08-05T13:56:19.043Z,35.73
2022-08-05T13:59:24.767Z,35.77
2022-08-05T14:02:29.709Z,35.74
2022-08-05T14:06:24.661Z,35.71
2022-08-05T14:08:55.758Z,35.65
2022-08-05T14:12:17.847Z,35.63
2022-08-05T14:16:07.314Z,35.63
2022-08-05T14:18:43.008Z,35.59
2022-08-05T14:22:08.712Z,35.60
2022-08-05T14:25:19.041Z,35.55
2022-08-05T14:28:26.970Z,35.53
2022-08-05T14:32:03.751Z,35.54
2022-08-05T14:34:53.200Z,35.51
2022-08-05T14:37:57.092Z,35.51
2022-08-05T14:41:06.382Z,35.43
2022-08-05T14:44:20.444Z,35.42
2022-08-05T14:48:02.820Z,35.41
2022-08-05T14:50:47.298Z,35.44
2022-08-05T14:54:26.497Z,35.37
2022-08-05T14:57:13.666Z,35.41
2022-08-05T15:00:16.052Z,35.38
2022-08-05T15:03:22.917Z,35.36
2022-08-05T15:06:27.962Z,35.27
2022-08-05T15:09:52.561Z,35.24
2022-08-05T15:13:00.964Z,35.16
2022-08-05T15:16:06.507Z,35.10
2022-08-05T15:19:23.210Z,35.05
2022-08-05T15:22:27.278Z,35.01
2022-08-05T15:25:51.712Z,34.97
2022-08-05T15:28:52.434Z,34.97
2022-08-05T15:31:54.530Z,34.97
2022-08-05T15:34:58.284Z,34.95
2022-08-05T15:38:32.325Z,34.94
2022-08-05T15:41:24.609Z,34.94
2022-08-05T15:44:46.281Z,34.89
2022-08-05T15:47:48.764Z,34.88
2022-08-05T15:50:57.277Z,34.86
2022-08-05T15:53:59.957Z,34.81
2022-08-05T15:57:03.229Z,34.77
2022-08-05T16:00:10.667Z,34.74
2022-08-05T16:03:13.696Z,34.67
2022-08-05T16:06:20.270Z,34.68
2022-08-05T16:09:24.715Z,34.56
2022-08-05T16:12:27.130Z,34.54
2022-08-05T16:15:32.333Z,34.51
2022-08-05T16:18:34.670Z,34.50
2022-08-05T16:21:59.326Z,34.43
2022-08-05T16:25:07.980Z,34.37
2022-08-05T16:28:13.584Z,34.30
2022-08-05T16:31:17.781Z,34.25
2022-08-05T16:34:23.041Z,34.21
2022-08-05T16:38:02.364Z,34.17
2022-08-05T16:40:55.010Z,34.09
2022-08-05T16:43:58.415Z,34.04
2022-08-05T16:47:03.697Z,33.96
2022-08-05T16:50:06.935Z,33.91
2022-08-05T16:53:12.568Z,33.87
2022-08-05T16:56:26.405Z,33.80
2022-08-05T16:59:30.622Z,33.71
2022-08-05T17:02:33.029Z,33.62
2022-08-05T17:05:37.049Z,33.52
2022-08-05T17:08:52.049Z,33.47
2022-08-05T17:11:59.723Z,33.41
2022-08-05T17:15:02.511Z,33.33
2022-08-05T17:18:05.359Z,33.25
2022-08-05T17:21:16.296Z,33.18
2022-08-05T17:24:35.118Z,33.09
2022-08-05T17:27:40.875Z,33.01
2022-08-05T17:30:51.810Z,32.86
2022-08-05T17:33:55.947Z,32.75
2022-08-05T17:37:00.532Z,32.58
2022-08-05T17:40:04.753Z,32.44
2022-08-05T17:43:12.767Z,32.28
2022-08-05T17:46:18.412Z,32.05
2022-08-05T17:49:21.056Z,31.91
2022-08-05T17:52:26.358Z,31.77
2022-08-05T17:55:37.376Z,31.60
2022-08-05T17:58:41.006Z,31.49
2022-08-05T18:01:50.386Z,31.31
2022-08-05T18:04:55.055Z,31.22
2022-08-05T18:07:57.470Z,31.13
2022-08-05T18:11:00.621Z,31.04
2022-08-05T18:14:13.253Z,30.94
2022-08-05T18:18:00.393Z,30.86
2022-08-05T18:20:38.460Z,30.76
2022-08-05T18:23:47.014Z,30.64
2022-08-05T18:26:49.468Z,30.57
2022-08-05T18:29:54.540Z,30.48
2022-08-05T18:33:00.418Z,30.37
2022-08-05T18:36:09.198Z,30.28
2022-08-05T18:39:41.823Z,30.16
2022-08-05T18:42:41.128Z,30.09
2022-08-05T18:45:43.964Z,29.98
2022-08-05T18:48:52.304Z,29.89
2022-08-05T18:52:13.087Z,29.80
2022-08-05T18:55:15.543Z,29.67
2022-08-05T18:58:18.558Z,29.59
2022-08-05T19:01:33.232Z,29.47
2022-08-05T19:05:01.722Z,29.39
2022-08-05T19:08:13.726Z,29.32
2022-08-05T19:11:20.408Z,29.28
2022-08-05T19:14:44.603Z,29.20
2022-08-05T19:18:08.382Z,29.15
2022-08-05T19:21:12.388Z,29.04
2022-08-05T19:24:14.484Z,29.02
2022-08-05T19:27:16.920Z,28.98
2022-08-05T19:30:21.835Z,28.93
2022-08-05T19:33:35.872Z,28.88
2022-08-05T19:36:38.814Z,28.81
2022-08-05T19:39:45.214Z,28.75
2022-08-05T19:43:00.836Z,28.69
2022-08-05T19:46:28.950Z,28.59
2022-08-05T19:49:30.935Z,28.53
2022-08-05T19:52:33.333Z,28.49
2022-08-05T19:56:13.687Z,28.45
2022-08-05T19:58:57.843Z,28.38
2022-08-05T20:02:20.016Z,28.29
2022-08-05T20:05:24.301Z,28.23
2022-08-05T20:08:27.073Z,28.12
2022-08-05T20:11:30.813Z,27.98
2022-08-05T20:14:39.875Z,27.91
2022-08-05T20:17:42.261Z,27.80
2022-08-05T20:20:46.773Z,27.72
2022-08-05T20:23:53.111Z,27.68
2022-08-05T20:26:55.550Z,27.64
2022-08-05T20:29:59.508Z,27.54
2022-08-05T20:33:02.214Z,27.53
2022-08-05T20:36:04.679Z,27.44
2022-08-05T20:39:06.845Z,27.33
2022-08-05T20:42:15.305Z,27.27
2022-08-05T20:45:23.943Z,27.12
2022-08-05T20:48:51.121Z,26.92
2022-08-05T20:51:54.975Z,26.91
2022-08-05T20:55:54.321Z,26.92
2022-08-05T20:58:19.787Z,26.85
2022-08-05T21:01:37.255Z,26.83
2022-08-05T21:04:40.674Z,26.78
2022-08-05T21:07:50.552Z,26.75
2022-08-05T21:10:54.469Z,26.62
2022-08-05T21:14:01.095Z,26.66
2022-08-05T21:17:05.108Z,26.60
2022-08-05T21:20:09.885Z,26.61
2022-08-05T21:23:12.880Z,26.53
2022-08-05T21:26:16.627Z,26.42
2022-08-05T21:29:19.865Z,26.34
2022-08-05T21:32:27.799Z,26.24
2022-08-05T21:35:43.954Z,26.16
2022-08-05T21:38:52.924Z,26.09
2022-08-05T21:42:01.965Z,26.04
2022-08-05T21:45:05.346Z,26.03
2022-08-05T21:48:13.576Z,25.98
2022-08-05T21:51:25.129Z,25.86
2022-08-05T21:54:40.476Z,25.78
2022-08-05T21:57:44.166Z,25.70
2022-08-05T22:00:51.269Z,25.73
2022-08-05T22:03:54.222Z,25.59
2022-08-05T22:06:57.049Z,25.53
2022-08-05T22:09:59.812Z,25.45
2022-08-05T22:13:08.912Z,25.36
2022-08-05T22:16:41.145Z,25.27
2022-08-05T22:19:57.414Z,25.28
2022-08-05T22:23:25.250Z,25.31
2022-08-05T22:27:06.921Z,25.24
2022-08-05T22:30:15.284Z,25.15
2022-08-05T22:33:19.420Z,25.07
2022-08-05T22:36:41.815Z,25.00
2022-08-05T22:39:45.216Z,24.97
2022-08-05T22:42:53.143Z,24.89
2022-08-05T22:46:01.770Z,24.91
2022-08-05T22:49:05.926Z,24.85
2022-08-05T22:52:13.832Z,24.79
2022-08-05T22:55:26.040Z,24.70
2022-08-05T22:58:28.757Z,24.66
2022-08-05T23:02:05.095Z,24.56
2022-08-05T23:04:53.660Z,24.56
2022-08-05T23:07:57.530Z,24.52
2022-08-05T23:10:59.603Z,24.45
2022-08-05T23:14:03.258Z,24.49
2022-08-05T23:17:24.359Z,24.48
2022-08-05T23:20:37.403Z,24.43
2022-08-05T23:23:39.865Z,24.34
2022-08-05T23:26:44.148Z,24.17
2022-08-05T23:29:50.511Z,24.14
2022-08-05T23:32:53.029Z,24.07
2022-08-05T23:35:56.382Z,24.04
2022-08-05T23:38:59.049Z,24.02
2022-08-05T23:42:01.407Z,23.99
2022-08-05T23:45:05.397Z,23.95
2022-08-05T23:48:16.605Z,23.90
2022-08-05T23:51:22.110Z,23.88
2022-08-05T23:54:30.452Z,23.81
2022-08-05T23:57:36.760Z,23.78
